Time;durP1;ratioP1;P1;durP2;ratioP2;P2;SDS_P1;SDS_P2;PMS_P1;PMS_P2;Temp;Humidity;BMP_temperature;BMP_pressure;BME280_temperature;BME280_humidity;BME280_pressure;Samples;Min_cycle;Max_cycle;Signal;HPM_P1;HPM_P2
2023/06/09 00:02:11;;;;;;;9.90;3.67;;;;;;;;;;5015978;28;20033;-69
2023/06/09 00:04:38;;;;;;;11.27;3.28;;;;;;;;;;5015987;28;20026;-69
2023/06/09 00:07:04;;;;;;;9.52;3.42;;;;;;;;;;5015883;28;20091;-72
2023/06/09 00:09:31;;;;;;;9.98;3.13;;;;;;;;;;5015574;28;20429;-69
2023/06/09 00:11:57;;;;;;;9.02;3.53;;;;;;;;;;5015427;28;20390;-69
2023/06/09 00:14:23;;;;;;;11.65;3.25;;;;;;;;;;5015470;28;20036;-69
2023/06/09 00:16:51;;;;;;;8.13;3.05;;;;;;;;;;5015353;28;20461;-69
2023/06/09 00:19:17;;;;;;;8.70;3.40;;;;;;;;;;5015320;28;20030;-69
2023/06/09 00:21:49;;;;;;;9.98;3.85;;;;;;;;;;5014989;28;20018;-69
2023/06/09 00:24:20;;;;;;;10.93;3.40;;;;;;;;;;5015268;28;20497;-69
2023/06/09 00:26:49;;;;;;;10.63;3.13;;;;;;;;;;5015135;28;20021;-69
2023/06/09 00:29:17;;;;;;;9.13;3.08;;;;;;;;;;5015310;28;20390;-69
2023/06/09 00:31:43;;;;;;;11.20;2.80;;;;;;;;;;5015313;28;20022;-69
2023/06/09 00:34:09;;;;;;;10.27;3.10;;;;;;;;;;5015280;28;20030;-69
2023/06/09 00:36:36;;;;;;;10.18;3.03;;;;;;;;;;5014795;28;20026;-69
2023/06/09 00:39:03;;;;;;;8.10;3.30;;;;;;;;;;5015104;28;20024;-69
2023/06/09 00:41:29;;;;;;;6.57;3.08;;;;;;;;;;5015048;28;20041;-70
2023/06/09 00:43:55;;;;;;;9.35;3.03;;;;;;;;;;5015136;28;20022;-69
2023/06/09 00:46:23;;;;;;;8.52;3.45;;;;;;;;;;5015158;28;20030;-69
2023/06/09 00:48:50;;;;;;;7.47;2.83;;;;;;;;;;5015100;28;20026;-69
2023/06/09 00:51:16;;;;;;;9.88;3.25;;;;;;;;;;5014533;28;20495;-69
2023/06/09 00:53:43;;;;;;;6.40;2.63;;;;;;;;;;4997000;28;20499;-69
2023/06/09 00:56:09;;;;;;;8.57;2.75;;;;;;;;;;4997431;28;20033;-69
2023/06/09 00:58:36;;;;;;;12.20;3.00;;;;;;;;;;5014689;28;20030;-69
2023/06/09 01:01:02;;;;;;;9.93;3.08;;;;;;;;;;5014486;28;20490;-69
2023/06/09 01:03:32;;;;;;;9.20;3.10;;;;;;;;;;5014837;28;20033;-69
2023/06/09 01:06:04;;;;;;;11.65;3.08;;;;;;;;;;5014129;28;20022;-69
2023/06/09 01:08:44;;;;;;;13.20;3.15;;;;;;;;;;5014420;28;20490;-69
2023/06/09 01:11:21;;;;;;;13.60;3.80;;;;;;;;;;4996935;28;20026;-69
2023/06/09 01:13:53;;;;;;;10.43;3.40;;;;;;;;;;5014585;28;20018;-69
2023/06/09 01:16:19;;;;;;;7.10;3.10;;;;;;;;;;5014649;28;20079;-69
2023/06/09 01:18:47;;;;;;;9.90;3.05;;;;;;;;;;5014316;28;20036;-69
2023/06/09 01:21:14;;;;;;;8.18;3.15;;;;;;;;;;5013695;28;20044;-69
2023/06/09 01:23:44;;;;;;;6.40;2.90;;;;;;;;;;5014353;28;20030;-69
2023/06/09 01:26:12;;;;;;;9.65;3.00;;;;;;;;;;5014205;28;20552;-69
2023/06/09 01:28:38;;;;;;;12.95;3.00;;;;;;;;;;5014199;28;20025;-69
2023/06/09 01:31:05;;;;;;;10.48;3.00;;;;;;;;;;5014091;28;20032;-69
2023/06/09 01:33:32;;;;;;;6.10;2.72;;;;;;;;;;5013995;28;20022;-69
2023/06/09 01:35:58;;;;;;;9.15;3.17;;;;;;;;;;5013611;28;20478;-69
2023/06/09 01:38:25;;;;;;;9.60;3.30;;;;;;;;;;5014279;28;20033;-69
2023/06/09 01:40:52;;;;;;;8.13;2.95;;;;;;;;;;5013909;28;20045;-69
2023/06/09 01:43:18;;;;;;;8.63;3.20;;;;;;;;;;5013732;28;20022;-69
2023/06/09 01:45:44;;;;;;;7.00;2.75;;;;;;;;;;5013716;28;20036;-69
2023/06/09 01:48:11;;;;;;;8.80;2.90;;;;;;;;;;5013742;28;20428;-69
2023/06/09 01:50:46;;;;;;;8.00;2.83;;;;;;;;;;5013306;28;20026;-69
2023/06/09 01:53:17;;;;;;;6.03;2.63;;;;;;;;;;4996045;28;20025;-69
2023/06/09 01:55:46;;;;;;;7.00;3.00;;;;;;;;;;5013786;28;20025;-69
2023/06/09 01:58:18;;;;;;;10.10;3.38;;;;;;;;;;5013523;28;20026;-69
2023/06/09 02:00:46;;;;;;;8.23;2.80;;;;;;;;;;5013413;28;20489;-69
2023/06/09 02:03:15;;;;;;;7.93;3.05;;;;;;;;;;5013093;28;20390;-69
2023/06/09 02:05:43;;;;;;;8.40;2.90;;;;;;;;;;5012735;28;20030;-69
2023/06/09 02:08:10;;;;;;;11.45;3.03;;;;;;;;;;5013401;28;20060;-69
2023/06/09 02:10:36;;;;;;;10.25;3.15;;;;;;;;;;5013458;28;20025;-69
2023/06/09 02:13:12;;;;;;;12.90;3.30;;;;;;;;;;5013533;28;20029;-69
2023/06/09 02:15:39;;;;;;;10.80;2.95;;;;;;;;;;5013395;28;20478;-69
2023/06/09 02:18:05;;;;;;;11.98;3.05;;;;;;;;;;5012637;28;20398;-69
2023/06/09 02:20:31;;;;;;;13.57;3.15;;;;;;;;;;5012939;28;20034;-69
2023/06/09 02:22:58;;;;;;;9.00;3.20;;;;;;;;;;5013445;28;20036;-69
2023/06/09 02:25:24;;;;;;;10.93;2.97;;;;;;;;;;5013494;28;20018;-69
2023/06/09 02:27:50;;;;;;;7.70;2.70;;;;;;;;;;5013011;28;20025;-69
2023/06/09 02:30:16;;;;;;;9.30;2.90;;;;;;;;;;5012982;28;20478;-69
2023/06/09 02:32:43;;;;;;;10.27;3.30;;;;;;;;;;5012690;28;20409;-69
2023/06/09 02:35:09;;;;;;;9.00;2.78;;;;;;;;;;5013373;28;20040;-69
2023/06/09 02:37:35;;;;;;;10.50;2.97;;;;;;;;;;5012887;28;20030;-69
2023/06/09 02:40:02;;;;;;;9.00;3.20;;;;;;;;;;5012852;28;20105;-69
2023/06/09 02:42:28;;;;;;;8.30;3.22;;;;;;;;;;5012828;28;20020;-69
2023/06/09 02:44:55;;;;;;;7.95;2.92;;;;;;;;;;5013000;28;20022;-69
2023/06/09 02:47:21;;;;;;;13.63;3.45;;;;;;;;;;5012411;28;20396;-69
2023/06/09 02:49:47;;;;;;;9.40;3.22;;;;;;;;;;5012928;28;20038;-69
2023/06/09 02:52:14;;;;;;;10.45;3.10;;;;;;;;;;5012945;28;20018;-69
2023/06/09 02:54:40;;;;;;;8.10;2.72;;;;;;;;;;5012521;28;20037;-70
2023/06/09 02:57:07;;;;;;;13.40;3.30;;;;;;;;;;5012853;28;20028;-69
2023/06/09 02:59:33;;;;;;;7.78;3.25;;;;;;;;;;5012733;28;20056;-69
2023/06/09 03:01:59;;;;;;;8.60;2.83;;;;;;;;;;5012465;28;20030;-69
2023/06/09 03:04:25;;;;;;;5.95;2.67;;;;;;;;;;5012778;28;20032;-69
2023/06/09 03:06:53;;;;;;;9.02;3.30;;;;;;;;;;5012421;28;20425;-69
2023/06/09 03:09:19;;;;;;;6.97;2.67;;;;;;;;;;5012656;28;20032;-69
2023/06/09 03:11:46;;;;;;;7.45;3.15;;;;;;;;;;5012359;28;20038;-69
2023/06/09 03:14:13;;;;;;;6.40;2.53;;;;;;;;;;5012437;28;20493;-69
2023/06/09 03:16:39;;;;;;;12.18;3.25;;;;;;;;;;5011835;28;20072;-69
2023/06/09 03:19:07;;;;;;;10.63;2.88;;;;;;;;;;5012290;28;20021;-69
2023/06/09 03:21:35;;;;;;;6.68;2.78;;;;;;;;;;5012243;28;20042;-68
2023/06/09 03:24:05;;;;;;;11.02;3.40;;;;;;;;;;5012256;28;20034;-69
2023/06/09 03:26:32;;;;;;;7.85;3.13;;;;;;;;;;5012380;28;20026;-69
2023/06/09 03:28:58;;;;;;;6.95;2.70;;;;;;;;;;5012526;28;20038;-69
2023/06/09 03:31:24;;;;;;;8.52;2.97;;;;;;;;;;5011746;28;20026;-69
2023/06/09 03:33:51;;;;;;;6.47;3.00;;;;;;;;;;5012281;28;20102;-69
2023/06/09 03:36:17;;;;;;;9.27;3.15;;;;;;;;;;4994645;28;20505;-69
2023/06/09 03:38:43;;;;;;;9.75;3.35;;;;;;;;;;5012353;28;20030;-69
2023/06/09 03:41:10;;;;;;;9.07;3.08;;;;;;;;;;5012158;28;20049;-69
2023/06/09 03:43:36;;;;;;;9.80;3.33;;;;;;;;;;5012347;28;20034;-69
2023/06/09 03:46:02;;;;;;;11.60;3.25;;;;;;;;;;5011721;28;20022;-69
2023/06/09 03:48:29;;;;;;;9.95;3.08;;;;;;;;;;4994616;28;20080;-69
2023/06/09 03:50:55;;;;;;;9.18;3.10;;;;;;;;;;5012082;28;20021;-69
2023/06/09 03:53:22;;;;;;;6.13;3.08;;;;;;;;;;5011850;28;20044;-69
2023/06/09 03:55:49;;;;;;;9.75;3.08;;;;;;;;;;5011850;28;20502;-70
2023/06/09 03:58:15;;;;;;;8.73;3.45;;;;;;;;;;5012234;28;20033;-69
2023/06/09 04:00:42;;;;;;;8.68;3.00;;;;;;;;;;5011448;28;20055;-69
2023/06/09 04:03:08;;;;;;;8.27;3.13;;;;;;;;;;5011846;28;20018;-68
2023/06/09 04:05:35;;;;;;;5.50;2.75;;;;;;;;;;5012048;28;20080;-69
2023/06/09 04:08:01;;;;;;;7.75;3.03;;;;;;;;;;5011789;28;20026;-69
2023/06/09 04:10:28;;;;;;;7.93;2.85;;;;;;;;;;5011900;28;20026;-69
2023/06/09 04:12:54;;;;;;;13.88;2.70;;;;;;;;;;5012139;28;20030;-69
2023/06/09 04:15:20;;;;;;;7.30;3.05;;;;;;;;;;5011437;28;20032;-69
2023/06/09 04:17:47;;;;;;;11.02;2.80;;;;;;;;;;5011632;28;20046;-69
2023/06/09 04:20:13;;;;;;;9.02;2.85;;;;;;;;;;5011620;28;20048;-69
2023/06/09 04:22:49;;;;;;;9.82;3.03;;;;;;;;;;5011568;28;20022;-69
2023/06/09 04:25:15;;;;;;;6.68;2.92;;;;;;;;;;5012154;28;20047;-69
2023/06/09 04:27:42;;;;;;;9.75;3.13;;;;;;;;;;5011584;28;20470;-69
2023/06/09 04:30:10;;;;;;;6.95;2.80;;;;;;;;;;5014435;28;20033;-69
2023/06/09 04:32:36;;;;;;;8.70;2.80;;;;;;;;;;5015107;28;20036;-69
2023/06/09 04:35:03;;;;;;;9.73;2.90;;;;;;;;;;5015167;28;20026;-69
2023/06/09 04:37:30;;;;;;;7.80;2.85;;;;;;;;;;4997941;28;20030;-69
2023/06/09 04:39:57;;;;;;;8.07;2.47;;;;;;;;;;5015258;28;20060;-71
2023/06/09 04:42:24;;;;;;;5.95;2.65;;;;;;;;;;5014923;28;20030;-71
2023/06/09 04:44:50;;;;;;;11.15;3.15;;;;;;;;;;5014999;28;20024;-69
2023/06/09 04:47:17;;;;;;;4.43;2.40;;;;;;;;;;5014924;28;20026;-69
2023/06/09 04:49:46;;;;;;;11.43;3.00;;;;;;;;;;5014867;28;20034;-69
2023/06/09 04:52:20;;;;;;;6.90;2.70;;;;;;;;;;5014845;28;20026;-69
2023/06/09 04:54:49;;;;;;;6.85;2.58;;;;;;;;;;5015051;28;20038;-69
2023/06/09 04:57:17;;;;;;;7.78;3.00;;;;;;;;;;5014614;28;20079;-69
2023/06/09 04:59:45;;;;;;;6.32;2.53;;;;;;;;;;5014715;28;20059;-69
2023/06/09 05:02:11;;;;;;;8.15;2.85;;;;;;;;;;5014632;28;20022;-69
2023/06/09 05:04:38;;;;;;;5.60;2.80;;;;;;;;;;5014874;28;20028;-69
2023/06/09 05:07:06;;;;;;;5.60;2.50;;;;;;;;;;5014511;28;20034;-69
2023/06/09 05:09:32;;;;;;;14.68;3.50;;;;;;;;;;5014486;28;20040;-69
2023/06/09 05:11:58;;;;;;;6.63;2.90;;;;;;;;;;5014364;28;20033;-69
2023/06/09 05:14:25;;;;;;;12.05;2.60;;;;;;;;;;5014518;28;20018;-69
2023/06/09 05:16:53;;;;;;;8.55;3.45;;;;;;;;;;5014329;28;20508;-69
2023/06/09 05:19:20;;;;;;;11.48;3.17;;;;;;;;;;5014302;28;20437;-69
2023/06/09 05:21:47;;;;;;;8.07;3.20;;;;;;;;;;5014045;28;20036;-69
2023/06/09 05:24:13;;;;;;;11.77;3.00;;;;;;;;;;5014145;28;20040;-69
2023/06/09 05:26:40;;;;;;;7.55;2.78;;;;;;;;;;5014104;28;20038;-69
2023/06/09 05:29:06;;;;;;;6.07;2.97;;;;;;;;;;5014374;28;20014;-71
2023/06/09 05:31:33;;;;;;;10.35;3.40;;;;;;;;;;5014169;28;20034;-71
2023/06/09 05:33:59;;;;;;;10.05;3.10;;;;;;;;;;5014045;28;20025;-69
2023/06/09 05:36:25;;;;;;;10.80;3.50;;;;;;;;;;5014136;28;20048;-69
2023/06/09 05:38:52;;;;;;;8.98;3.50;;;;;;;;;;5014081;28;20026;-68
2023/06/09 05:41:18;;;;;;;12.27;3.90;;;;;;;;;;5012260;28;20391;-69
2023/06/09 05:43:44;;;;;;;8.07;2.90;;;;;;;;;;5013845;28;20026;-69
2023/06/09 05:46:11;;;;;;;12.30;3.00;;;;;;;;;;5014096;28;20026;-69
2023/06/09 05:48:37;;;;;;;9.25;3.25;;;;;;;;;;4996250;28;20026;-69
2023/06/09 05:51:03;;;;;;;10.38;2.90;;;;;;;;;;5013653;28;20386;-69
2023/06/09 05:53:32;;;;;;;7.05;3.17;;;;;;;;;;5013859;28;20029;-69
2023/06/09 05:55:59;;;;;;;6.68;2.72;;;;;;;;;;5013553;28;20026;-69
2023/06/09 05:58:27;;;;;;;12.38;2.97;;;;;;;;;;5013740;28;20022;-69
2023/06/09 06:00:57;;;;;;;9.40;2.67;;;;;;;;;;5013542;28;20030;-69
2023/06/09 06:03:24;;;;;;;7.30;2.83;;;;;;;;;;5013483;28;20071;-69
2023/06/09 06:05:51;;;;;;;7.57;2.80;;;;;;;;;;5013544;28;20103;-69
2023/06/09 06:08:17;;;;;;;9.45;3.05;;;;;;;;;;5013379;28;20030;-69
2023/06/09 06:10:43;;;;;;;6.43;2.63;;;;;;;;;;4992037;28;20042;-70
2023/06/09 06:13:10;;;;;;;9.00;3.30;;;;;;;;;;5011653;28;20025;-67
2023/06/09 06:15:36;;;;;;;9.30;3.67;;;;;;;;;;5011748;28;20030;-69
2023/06/09 06:18:03;;;;;;;10.82;3.17;;;;;;;;;;5012287;28;20083;-69
2023/06/09 06:20:29;;;;;;;7.95;2.90;;;;;;;;;;5012898;28;20091;-69
2023/06/09 06:22:57;;;;;;;11.68;2.97;;;;;;;;;;5011969;28;20020;-70
2023/06/09 06:25:23;;;;;;;7.25;2.60;;;;;;;;;;5010893;28;20040;-69
2023/06/09 06:27:50;;;;;;;10.20;2.53;;;;;;;;;;5012840;28;20022;-69
2023/06/09 06:30:16;;;;;;;12.50;2.47;;;;;;;;;;5012846;28;20022;-69
2023/06/09 06:32:50;;;;;;;7.90;2.78;;;;;;;;;;5012817;28;20066;-70
2023/06/09 06:35:26;;;;;;;9.13;3.20;;;;;;;;;;4995110;28;20036;-69
2023/06/09 06:37:53;;;;;;;8.07;2.85;;;;;;;;;;5003075;28;20022;-69
2023/06/09 06:40:19;;;;;;;13.63;2.90;;;;;;;;;;4998484;28;20030;-69
2023/06/09 06:42:46;;;;;;;9.45;2.85;;;;;;;;;;4994631;28;20030;-72
2023/06/09 06:45:12;;;;;;;5.93;2.85;;;;;;;;;;4994429;28;20033;-69
2023/06/09 06:47:40;;;;;;;14.45;3.15;;;;;;;;;;4994867;28;20045;-68
2023/06/09 06:50:08;;;;;;;7.57;2.78;;;;;;;;;;4994931;28;20072;-68
2023/06/09 06:52:34;;;;;;;6.95;3.00;;;;;;;;;;5003455;28;20083;-68
2023/06/09 06:55:01;;;;;;;12.68;2.90;;;;;;;;;;5012278;28;20022;-68
2023/06/09 06:57:27;;;;;;;7.43;2.67;;;;;;;;;;5012750;28;20029;-68
2023/06/09 06:59:53;;;;;;;14.38;3.13;;;;;;;;;;5011672;28;20030;-69
2023/06/09 07:02:20;;;;;;;9.18;3.17;;;;;;;;;;5011976;28;20038;-69
2023/06/09 07:04:46;;;;;;;7.88;2.85;;;;;;;;;;5012245;28;20018;-70
2023/06/09 07:07:12;;;;;;;10.10;2.70;;;;;;;;;;4994074;28;20026;-69
2023/06/09 07:09:39;;;;;;;14.52;3.35;;;;;;;;;;5011948;28;20022;-70
2023/06/09 07:12:06;;;;;;;11.07;2.60;;;;;;;;;;5012061;28;20087;-70
2023/06/09 07:14:34;;;;;;;9.00;3.00;;;;;;;;;;5011033;28;20033;-70
2023/06/09 07:17:01;;;;;;;11.43;3.00;;;;;;;;;;5009425;28;20391;-69
2023/06/09 07:19:27;;;;;;;8.98;3.28;;;;;;;;;;5011936;28;20470;-69
2023/06/09 07:21:53;;;;;;;10.05;2.90;;;;;;;;;;5011609;28;20392;-69
2023/06/09 07:24:20;;;;;;;17.73;3.15;;;;;;;;;;5010773;28;20026;-70
2023/06/09 07:26:46;;;;;;;7.07;3.13;;;;;;;;;;5010705;28;20044;-69
2023/06/09 07:29:13;;;;;;;11.55;3.00;;;;;;;;;;5010175;28;20060;-70
2023/06/09 07:31:39;;;;;;;8.05;3.03;;;;;;;;;;5009521;28;20035;-70
2023/06/09 07:34:06;;;;;;;12.07;3.20;;;;;;;;;;5011065;28;20067;-70
2023/06/09 07:36:35;;;;;;;5.20;2.30;;;;;;;;;;5010671;28;20025;-70
2023/06/09 07:39:03;;;;;;;6.82;2.45;;;;;;;;;;5010052;28;20022;-69
2023/06/09 07:41:30;;;;;;;8.85;2.80;;;;;;;;;;5010828;28;20087;-70
2023/06/09 07:43:57;;;;;;;6.72;2.80;;;;;;;;;;5010104;28;20022;-70
2023/06/09 07:46:24;;;;;;;10.32;2.80;;;;;;;;;;5009757;28;20048;-70
2023/06/09 07:48:50;;;;;;;8.77;2.97;;;;;;;;;;5010717;28;20021;-70
2023/06/09 07:51:18;;;;;;;11.13;3.20;;;;;;;;;;5010033;28;20022;-70
2023/06/09 07:53:45;;;;;;;9.80;2.72;;;;;;;;;;5010315;28;20034;-70
2023/06/09 07:56:11;;;;;;;14.35;3.17;;;;;;;;;;5010052;28;20022;-70
2023/06/09 07:58:38;;;;;;;8.10;2.63;;;;;;;;;;4992227;28;20029;-70
2023/06/09 08:01:04;;;;;;;9.90;2.70;;;;;;;;;;5009912;28;20030;-70
2023/06/09 08:03:34;;;;;;;10.63;2.65;;;;;;;;;;5011285;28;20026;-69
2023/06/09 08:06:01;;;;;;;8.47;2.80;;;;;;;;;;5013725;28;20482;-70
2023/06/09 08:08:29;;;;;;;7.88;3.47;;;;;;;;;;5013996;28;20501;-71
2023/06/09 08:10:55;;;;;;;11.45;3.10;;;;;;;;;;5013850;28;20034;-70
2023/06/09 08:13:22;;;;;;;8.25;3.22;;;;;;;;;;5013534;28;20067;-71
2023/06/09 08:15:48;;;;;;;9.02;2.70;;;;;;;;;;5013994;28;20075;-71
2023/06/09 08:18:14;;;;;;;7.22;2.83;;;;;;;;;;5013832;28;20042;-70
2023/06/09 08:20:41;;;;;;;7.15;2.60;;;;;;;;;;5013329;28;20044;-70
2023/06/09 08:23:07;;;;;;;8.93;2.83;;;;;;;;;;5013993;28;20030;-70
2023/06/09 08:25:37;;;;;;;8.52;3.33;;;;;;;;;;5013116;28;20398;-69
2023/06/09 08:28:03;;;;;;;7.93;3.10;;;;;;;;;;5014035;28;20028;-70
2023/06/09 08:30:31;;;;;;;6.55;2.78;;;;;;;;;;5013848;28;20024;-69
2023/06/09 08:32:57;;;;;;;8.82;2.80;;;;;;;;;;4996328;28;20622;-70
2023/06/09 08:35:25;;;;;;;5.82;2.80;;;;;;;;;;5013644;28;20050;-70
2023/06/09 08:37:52;;;;;;;12.10;3.28;;;;;;;;;;5010759;28;20036;-70
2023/06/09 08:40:18;;;;;;;9.75;2.75;;;;;;;;;;4976654;28;20046;-71
2023/06/09 08:42:46;;;;;;;10.25;2.83;;;;;;;;;;5010916;28;20040;-70
2023/06/09 08:45:15;;;;;;;7.68;2.80;;;;;;;;;;4992191;28;20034;-70
2023/06/09 08:47:42;;;;;;;9.50;2.80;;;;;;;;;;5007521;28;20494;-71
2023/06/09 08:50:09;;;;;;;11.75;2.65;;;;;;;;;;5009742;28;20022;-70
2023/06/09 08:52:35;;;;;;;9.73;2.88;;;;;;;;;;4995529;28;20044;-70
2023/06/09 08:55:03;;;;;;;13.73;2.88;;;;;;;;;;4996097;28;20018;-71
2023/06/09 08:57:31;;;;;;;9.73;2.60;;;;;;;;;;4995506;28;20040;-70
2023/06/09 08:59:57;;;;;;;8.60;3.03;;;;;;;;;;5012549;28;20033;-70
2023/06/09 09:02:25;;;;;;;5.90;2.75;;;;;;;;;;5012801;28;20034;-70
2023/06/09 09:04:52;;;;;;;10.45;2.80;;;;;;;;;;5012712;28;20036;-70
2023/06/09 09:07:18;;;;;;;9.98;2.80;;;;;;;;;;5012163;28;20044;-70
2023/06/09 09:09:45;;;;;;;9.85;2.72;;;;;;;;;;5012566;28;20034;-70
2023/06/09 09:12:12;;;;;;;11.10;2.78;;;;;;;;;;5013041;28;20024;-70
2023/06/09 09:14:43;;;;;;;9.60;3.00;;;;;;;;;;5012393;28;20025;-70
2023/06/09 09:17:10;;;;;;;7.07;2.75;;;;;;;;;;5012109;28;20053;-68
2023/06/09 09:19:37;;;;;;;8.13;2.60;;;;;;;;;;5011859;28;20038;-71
2023/06/09 09:22:07;;;;;;;10.95;2.88;;;;;;;;;;5010538;28;20041;-70
2023/06/09 09:24:34;;;;;;;8.13;3.00;;;;;;;;;;4993268;28;20096;-71
2023/06/09 09:27:01;;;;;;;9.10;2.30;;;;;;;;;;5004128;28;20042;-72
2023/06/09 09:29:28;;;;;;;10.85;2.70;;;;;;;;;;5012509;28;20028;-71
2023/06/09 09:32:02;;;;;;;14.50;3.13;;;;;;;;;;5012391;28;20018;-70
2023/06/09 09:34:32;;;;;;;9.63;2.38;;;;;;;;;;5011385;28;20030;-71
2023/06/09 09:36:58;;;;;;;9.90;2.20;;;;;;;;;;5012837;28;20021;-71
2023/06/09 09:39:25;;;;;;;11.43;2.70;;;;;;;;;;5012254;28;20275;-71
2023/06/09 09:42:07;;;;;;;7.90;2.67;;;;;;;;;;5012366;28;20517;-71
2023/06/09 09:44:37;;;;;;;9.85;2.55;;;;;;;;;;5011517;28;20637;-69
2023/06/09 09:47:12;;;;;;;6.32;2.45;;;;;;;;;;5010925;28;20034;-71
2023/06/09 09:49:48;;;;;;;7.43;2.40;;;;;;;;;;5012144;28;20835;-70
2023/06/09 09:52:15;;;;;;;7.38;2.55;;;;;;;;;;5012186;28;20478;-70
2023/06/09 09:54:41;;;;;;;8.30;2.33;;;;;;;;;;5012193;28;20038;-70
2023/06/09 09:57:07;;;;;;;9.98;2.60;;;;;;;;;;5012349;28;20405;-71
2023/06/09 09:59:34;;;;;;;13.75;2.70;;;;;;;;;;5011769;28;20053;-70
2023/06/09 10:02:00;;;;;;;7.00;2.53;;;;;;;;;;5007834;28;20034;-70
2023/06/09 10:04:27;;;;;;;6.22;2.85;;;;;;;;;;5011932;28;20029;-70
2023/06/09 10:06:56;;;;;;;9.20;2.30;;;;;;;;;;5011833;28;20030;-70
2023/06/09 10:09:24;;;;;;;5.65;2.50;;;;;;;;;;5012007;28;20068;-70
2023/06/09 10:11:54;;;;;;;5.80;2.40;;;;;;;;;;5011682;28;20052;-70
2023/06/09 10:14:21;;;;;;;10.82;2.70;;;;;;;;;;5011983;28;20034;-69
2023/06/09 10:16:51;;;;;;;13.02;2.67;;;;;;;;;;5011345;28;20084;-70
2023/06/09 10:19:18;;;;;;;8.70;2.38;;;;;;;;;;5011656;28;20032;-70
2023/06/09 10:21:46;;;;;;;9.00;2.47;;;;;;;;;;5011016;28;20502;-69
2023/06/09 10:24:13;;;;;;;11.40;2.60;;;;;;;;;;5020666;28;20028;-69
2023/06/09 10:26:40;;;;;;;10.48;2.63;;;;;;;;;;5024365;28;20038;-69
2023/06/09 10:29:09;;;;;;;9.63;3.00;;;;;;;;;;5011671;28;20506;-69
2023/06/09 10:31:41;;;;;;;6.10;2.47;;;;;;;;;;5011017;28;20030;-68
2023/06/09 10:34:08;;;;;;;8.55;3.13;;;;;;;;;;5011585;28;20030;-70
2023/06/09 10:36:37;;;;;;;8.82;3.00;;;;;;;;;;5011329;28;20022;-69
2023/06/09 10:39:15;;;;;;;8.82;3.10;;;;;;;;;;5011846;28;20422;-70
2023/06/09 10:41:43;;;;;;;8.85;2.90;;;;;;;;;;5011740;28;20038;-69
2023/06/09 10:44:10;;;;;;;7.53;2.78;;;;;;;;;;5012153;28;20021;-69
2023/06/09 10:46:41;;;;;;;12.38;2.90;;;;;;;;;;5011183;28;20032;-69
2023/06/09 10:49:07;;;;;;;12.02;2.90;;;;;;;;;;5011903;28;20030;-69
2023/06/09 10:51:40;;;;;;;9.57;2.90;;;;;;;;;;5011479;28;20537;-69
2023/06/09 10:54:12;;;;;;;12.50;3.15;;;;;;;;;;5011902;28;20034;-69
2023/06/09 10:56:42;;;;;;;9.60;3.00;;;;;;;;;;5011490;28;20394;-69
2023/06/09 10:59:30;;;;;;;4.68;2.78;;;;;;;;;;5011092;28;20025;-70
2023/06/09 11:02:02;;;;;;;6.63;3.00;;;;;;;;;;5010684;28;20042;-69
2023/06/09 11:04:44;;;;;;;7.18;3.08;;;;;;;;;;5011465;28;20026;-69
2023/06/09 11:07:14;;;;;;;7.40;3.10;;;;;;;;;;5011688;28;20022;-70
2023/06/09 11:10:01;;;;;;;6.88;2.67;;;;;;;;;;5011146;28;20398;-70
2023/06/09 11:12:27;;;;;;;6.15;2.78;;;;;;;;;;5011043;28;20036;-70
2023/06/09 11:14:56;;;;;;;5.82;2.50;;;;;;;;;;5010774;28;20034;-69
2023/06/09 11:17:27;;;;;;;7.30;2.55;;;;;;;;;;5011194;28;20556;-69
2023/06/09 11:20:09;;;;;;;10.48;2.70;;;;;;;;;;5010884;28;20038;-70
2023/06/09 11:22:55;;;;;;;8.27;2.60;;;;;;;;;;5018342;28;20029;-70
2023/06/09 11:25:23;;;;;;;10.77;2.60;;;;;;;;;;5031009;28;20018;-69
2023/06/09 11:27:55;;;;;;;6.45;2.90;;;;;;;;;;5030855;28;20532;-70
2023/06/09 11:30:26;;;;;;;5.72;2.40;;;;;;;;;;5030646;28;20413;-70
2023/06/09 11:32:53;;;;;;;5.65;2.42;;;;;;;;;;5030533;28;20057;-70
2023/06/09 11:35:26;;;;;;;6.53;2.53;;;;;;;;;;5030561;28;20045;-70
2023/06/09 11:37:53;;;;;;;9.52;2.70;;;;;;;;;;5031771;28;20409;-71
2023/06/09 11:40:19;;;;;;;5.78;2.55;;;;;;;;;;5012729;28;20025;-70
2023/06/09 11:42:46;;;;;;;5.78;2.67;;;;;;;;;;5014397;28;20038;-70
2023/06/09 11:45:13;;;;;;;8.35;2.65;;;;;;;;;;5013368;28;20025;-70
2023/06/09 11:47:42;;;;;;;12.60;2.78;;;;;;;;;;5014662;28;20029;-69
2023/06/09 11:50:12;;;;;;;14.05;2.65;;;;;;;;;;4996971;28;20026;-70
2023/06/09 11:52:45;;;;;;;6.63;2.58;;;;;;;;;;5013288;28;20034;-69
2023/06/09 11:55:13;;;;;;;7.95;2.75;;;;;;;;;;5014340;28;20032;-70
2023/06/09 11:57:40;;;;;;;8.20;2.88;;;;;;;;;;5014173;28;20026;-70
2023/06/09 12:00:13;;;;;;;5.88;2.92;;;;;;;;;;5014247;28;20029;-70
2023/06/09 12:02:40;;;;;;;7.47;3.05;;;;;;;;;;5011196;28;20042;-70
2023/06/09 12:05:08;;;;;;;7.00;2.70;;;;;;;;;;5013462;28;20040;-70
2023/06/09 12:07:35;;;;;;;12.00;3.30;;;;;;;;;;5009812;28;20047;-70
2023/06/09 12:10:01;;;;;;;7.15;2.72;;;;;;;;;;5006061;28;20030;-70
2023/06/09 12:12:27;;;;;;;11.50;3.22;;;;;;;;;;5010718;28;20490;-70
2023/06/09 12:14:54;;;;;;;6.55;3.17;;;;;;;;;;5008623;28;20103;-70
2023/06/09 12:17:21;;;;;;;8.57;3.60;;;;;;;;;;5009297;28;20046;-70
2023/06/09 12:19:48;;;;;;;9.02;3.13;;;;;;;;;;5007686;28;20026;-70
2023/06/09 12:22:14;;;;;;;10.13;3.03;;;;;;;;;;5006785;28;20042;-68
2023/06/09 12:24:41;;;;;;;6.72;2.90;;;;;;;;;;5010364;28;20512;-70
2023/06/09 12:27:13;;;;;;;9.70;2.88;;;;;;;;;;5013157;28;20026;-70
2023/06/09 12:29:40;;;;;;;8.65;2.85;;;;;;;;;;5013372;28;20060;-70
2023/06/09 12:32:10;;;;;;;8.48;2.53;;;;;;;;;;5012973;28;20052;-70
2023/06/09 12:34:37;;;;;;;7.97;3.03;;;;;;;;;;5013154;28;20029;-70
2023/06/09 12:37:05;;;;;;;4.20;2.92;;;;;;;;;;5012943;28;20684;-70
2023/06/09 12:39:35;;;;;;;6.43;3.00;;;;;;;;;;5008440;28;20052;-69
2023/06/09 12:42:11;;;;;;;7.68;3.17;;;;;;;;;;5004515;28;20040;-70
2023/06/09 12:44:38;;;;;;;6.40;2.67;;;;;;;;;;4997757;28;20093;-70
2023/06/09 12:47:12;;;;;;;8.70;2.88;;;;;;;;;;5011937;28;20022;-70
2023/06/09 12:49:42;;;;;;;10.63;2.60;;;;;;;;;;5008161;28;20511;-70
2023/06/09 12:52:09;;;;;;;7.20;2.97;;;;;;;;;;4994333;28;20052;-70
2023/06/09 12:54:35;;;;;;;49.78;5.05;;;;;;;;;;5007892;28;20030;-70
2023/06/09 12:57:01;;;;;;;15.30;6.00;;;;;;;;;;5012081;28;20030;-70
2023/06/09 12:59:27;;;;;;;24.40;10.98;;;;;;;;;;5004399;28;20075;-70
2023/06/09 13:01:54;;;;;;;35.10;15.48;;;;;;;;;;5005473;28;20041;-70
2023/06/09 13:04:21;;;;;;;34.08;17.30;;;;;;;;;;4994553;28;20028;-70
2023/06/09 13:06:47;;;;;;;26.23;11.93;;;;;;;;;;5012656;28;20047;-70
2023/06/09 13:09:13;;;;;;;32.90;15.05;;;;;;;;;;5009329;28;20034;-70
2023/06/09 13:11:40;;;;;;;35.67;17.08;;;;;;;;;;5001374;28;20083;-70
2023/06/09 13:14:06;;;;;;;36.90;17.90;;;;;;;;;;5012732;28;20494;-70
2023/06/09 13:16:32;;;;;;;41.63;17.88;;;;;;;;;;5012377;28;20029;-70
2023/06/09 13:18:59;;;;;;;54.83;23.98;;;;;;;;;;5012166;28;20037;-71
2023/06/09 13:21:29;;;;;;;39.15;19.25;;;;;;;;;;5009478;28;20038;-71
2023/06/09 13:23:56;;;;;;;41.08;19.15;;;;;;;;;;5011147;28;20030;-70
2023/06/09 13:26:22;;;;;;;51.92;21.73;;;;;;;;;;4994217;28;20030;-70
2023/06/09 13:28:48;;;;;;;46.35;21.02;;;;;;;;;;4999414;28;20030;-70
2023/06/09 13:31:15;;;;;;;49.50;22.83;;;;;;;;;;5008199;28;20033;-70
2023/06/09 13:33:41;;;;;;;45.95;20.67;;;;;;;;;;5007451;28;20056;-70
2023/06/09 13:36:07;;;;;;;43.10;19.80;;;;;;;;;;5005964;28;20030;-70
2023/06/09 13:38:37;;;;;;;40.50;20.70;;;;;;;;;;5011467;28;20030;-69
2023/06/09 13:41:03;;;;;;;36.70;18.90;;;;;;;;;;5001344;28;20042;-70
2023/06/09 13:43:30;;;;;;;43.45;18.30;;;;;;;;;;5011626;28;20030;-70
2023/06/09 13:45:56;;;;;;;30.05;16.02;;;;;;;;;;5011946;28;20033;-70
2023/06/09 13:48:22;;;;;;;18.15;10.18;;;;;;;;;;5010064;28;20026;-70
2023/06/09 13:50:51;;;;;;;18.35;9.02;;;;;;;;;;5011258;28;20037;-71
2023/06/09 13:53:18;;;;;;;15.45;8.77;;;;;;;;;;5009805;28;20038;-71
2023/06/09 13:55:44;;;;;;;16.17;8.10;;;;;;;;;;5014477;28;20018;-69
2023/06/09 13:58:10;;;;;;;9.95;6.65;;;;;;;;;;5011176;28;20079;-71
2023/06/09 14:00:37;;;;;;;9.95;5.00;;;;;;;;;;5010115;28;20042;-71
2023/06/09 14:03:03;;;;;;;14.27;7.90;;;;;;;;;;5011051;28;20091;-70
2023/06/09 14:05:29;;;;;;;11.25;8.38;;;;;;;;;;4994154;28;20036;-70
2023/06/09 14:07:56;;;;;;;11.95;7.47;;;;;;;;;;5010741;28;20083;-70
2023/06/09 14:10:23;;;;;;;12.73;7.90;;;;;;;;;;5011267;28;20044;-70
2023/06/09 14:12:50;;;;;;;13.80;7.15;;;;;;;;;;5011215;28;20048;-70
2023/06/09 14:15:17;;;;;;;15.68;7.63;;;;;;;;;;5011221;28;20040;-70
2023/06/09 14:17:49;;;;;;;17.58;6.45;;;;;;;;;;4999155;28;20042;-70
2023/06/09 14:20:16;;;;;;;15.40;7.38;;;;;;;;;;4987959;28;20025;-70
2023/06/09 14:22:45;;;;;;;13.60;7.05;;;;;;;;;;4988212;28;20046;-70
2023/06/09 14:25:18;;;;;;;8.88;5.60;;;;;;;;;;4990886;28;20034;-70
2023/06/09 14:27:45;;;;;;;11.27;5.35;;;;;;;;;;4990827;28;20026;-68
2023/06/09 14:30:14;;;;;;;11.55;5.43;;;;;;;;;;4992483;28;20447;-68
2023/06/09 14:32:41;;;;;;;10.93;5.72;;;;;;;;;;4992358;28;20046;-71
2023/06/09 14:35:07;;;;;;;15.20;4.88;;;;;;;;;;4990987;28;20065;-71
2023/06/09 14:37:34;;;;;;;12.75;5.10;;;;;;;;;;4991863;28;20048;-70
2023/06/09 14:40:00;;;;;;;11.70;4.85;;;;;;;;;;4992660;28;20540;-71
2023/06/09 14:42:26;;;;;;;17.13;5.68;;;;;;;;;;4992771;28;20030;-70